Time;durP1;ratioP1;P1;durP2;ratioP2;P2;SDS_P1;SDS_P2;PMS_P1;PMS_P2;Temp;Humidity;BMP_temperature;BMP_pressure;BME280_temperature;BME280_humidity;BME280_pressure;Samples;Min_cycle;Max_cycle;Signal;HPM_P1;HPM_P2
2021/07/02 00:02:25;;;;;;;6.18;3.13;;;20.80;63.20;;;;;;5033741;28;20034;-67
2021/07/02 00:04:50;;;;;;;7.45;3.58;;;20.70;63.20;;;;;;5033173;28;20037;-67
2021/07/02 00:07:16;;;;;;;6.68;2.85;;;20.70;63.20;;;;;;5033371;28;20511;-67
2021/07/02 00:09:41;;;;;;;6.55;3.13;;;20.80;63.20;;;;;;5033270;28;20465;-67
2021/07/02 00:12:07;;;;;;;5.70;2.88;;;20.70;63.20;;;;;;5033348;28;20041;-67
2021/07/02 00:14:32;;;;;;;6.93;3.33;;;20.70;63.20;;;;;;5033325;28;20022;-67
2021/07/02 00:16:58;;;;;;;6.38;3.20;;;20.70;63.20;;;;;;5033288;28;20409;-68
2021/07/02 00:19:25;;;;;;;6.47;2.92;;;20.70;63.30;;;;;;5033094;28;20442;-67
2021/07/02 00:21:50;;;;;;;7.10;3.42;;;20.70;63.30;;;;;;5033233;28;20013;-68
2021/07/02 00:24:16;;;;;;;8.13;3.90;;;20.70;63.30;;;;;;5033126;28;20533;-67
2021/07/02 00:26:42;;;;;;;6.30;3.45;;;20.70;63.30;;;;;;5033094;28;20381;-67
2021/07/02 00:29:08;;;;;;;7.13;3.15;;;20.70;63.30;;;;;;5033124;28;20018;-67
2021/07/02 00:31:34;;;;;;;6.88;3.45;;;20.70;63.30;;;;;;5033191;28;20370;-67
2021/07/02 00:34:00;;;;;;;6.82;3.55;;;20.70;63.30;;;;;;5032999;28;20022;-67
2021/07/02 00:36:25;;;;;;;7.97;3.83;;;20.70;63.30;;;;;;5032990;28;20030;-67
2021/07/02 00:38:51;;;;;;;6.88;3.40;;;20.70;63.30;;;;;;5033057;28;20484;-67
2021/07/02 00:41:17;;;;;;;5.78;3.15;;;20.70;63.20;;;;;;5033004;28;20026;-67
2021/07/02 00:43:53;;;;;;;5.82;3.30;;;20.70;63.20;;;;;;5032882;28;20355;-67
2021/07/02 00:46:20;;;;;;;6.65;3.70;;;20.70;63.20;;;;;;5032418;28;20061;-67
2021/07/02 00:48:45;;;;;;;6.38;3.45;;;20.70;63.30;;;;;;5032947;28;20092;-67
2021/07/02 00:51:11;;;;;;;6.25;3.25;;;20.70;63.20;;;;;;5033295;28;20483;-67
2021/07/02 00:53:38;;;;;;;8.25;4.15;;;20.70;63.30;;;;;;5015109;28;20021;-67
2021/07/02 00:56:04;;;;;;;5.88;3.05;;;20.70;63.30;;;;;;5032952;28;20116;-67
2021/07/02 00:58:33;;;;;;;8.90;4.25;;;20.70;63.20;;;;;;5032848;28;20042;-67
2021/07/02 01:00:59;;;;;;;8.50;3.90;;;20.70;63.30;;;;;;5015187;28;20029;-67
2021/07/02 01:03:25;;;;;;;6.65;3.50;;;20.70;63.30;;;;;;5032854;28;20045;-67
2021/07/02 01:05:50;;;;;;;7.03;3.42;;;20.70;63.30;;;;;;5036539;28;20064;-67
2021/07/02 01:08:17;;;;;;;6.63;3.63;;;20.70;63.30;;;;;;5036395;28;20080;-67
2021/07/02 01:10:43;;;;;;;8.10;3.90;;;20.70;63.30;;;;;;5036517;28;20140;-67
2021/07/02 01:13:09;;;;;;;8.02;4.00;;;20.60;63.30;;;;;;5036391;28;20048;-67
2021/07/02 01:15:35;;;;;;;6.32;3.30;;;20.70;63.30;;;;;;5036432;28;20484;-68
2021/07/02 01:18:05;;;;;;;7.90;4.25;;;20.70;63.30;;;;;;5036275;28;20033;-68
2021/07/02 01:20:31;;;;;;;7.85;4.22;;;20.60;63.20;;;;;;5036311;28;20545;-68
2021/07/02 01:22:57;;;;;;;9.48;4.50;;;20.60;63.20;;;;;;5036321;28;20107;-68
2021/07/02 01:25:28;;;;;;;8.38;4.40;;;20.70;63.20;;;;;;5036110;28;20025;-67
2021/07/02 01:27:53;;;;;;;10.20;4.13;;;20.60;63.30;;;;;;5036122;28;20606;-68
2021/07/02 01:30:19;;;;;;;7.35;4.53;;;20.70;63.30;;;;;;5035917;28;20105;-68
2021/07/02 01:32:45;;;;;;;8.73;4.10;;;20.60;63.20;;;;;;5036254;28;20111;-68
2021/07/02 01:35:10;;;;;;;9.50;4.70;;;20.70;63.20;;;;;;5035842;28;20156;-67
2021/07/02 01:37:36;;;;;;;7.65;4.60;;;20.60;63.30;;;;;;5035840;28;20037;-67
2021/07/02 01:40:03;;;;;;;8.35;4.60;;;20.60;63.30;;;;;;5035926;28;20026;-68
2021/07/02 01:42:28;;;;;;;7.35;4.53;;;20.60;63.30;;;;;;5035601;28;20116;-67
2021/07/02 01:44:54;;;;;;;8.82;4.32;;;20.60;63.30;;;;;;5035609;28;20056;-67
2021/07/02 01:47:20;;;;;;;7.03;4.57;;;20.70;63.20;;;;;;5035635;28;20037;-67
2021/07/02 01:49:45;;;;;;;10.60;4.88;;;20.60;63.20;;;;;;5035790;28;20524;-67
2021/07/02 01:52:11;;;;;;;9.48;4.85;;;20.60;63.20;;;;;;5035897;28;20041;-67
2021/07/02 01:54:36;;;;;;;7.50;4.50;;;20.60;63.30;;;;;;5036034;28;20072;-67
2021/07/02 01:57:08;;;;;;;9.18;4.68;;;20.60;63.30;;;;;;5035724;28;20025;-67
2021/07/02 01:59:33;;;;;;;8.23;4.47;;;20.60;63.30;;;;;;5035469;28;20373;-67
2021/07/02 02:01:59;;;;;;;9.07;4.88;;;20.60;63.30;;;;;;5035920;28;20025;-67
2021/07/02 02:04:24;;;;;;;8.18;4.95;;;20.60;63.30;;;;;;5035718;28;20389;-67
2021/07/02 02:06:50;;;;;;;9.18;4.85;;;20.60;63.30;;;;;;5035602;28;20029;-67
2021/07/02 02:09:15;;;;;;;10.07;5.65;;;20.60;63.30;;;;;;5035877;28;20028;-67
2021/07/02 02:11:41;;;;;;;8.48;4.88;;;20.60;63.30;;;;;;5035298;28;20021;-67
2021/07/02 02:14:10;;;;;;;9.93;5.05;;;20.60;63.30;;;;;;5035345;28;20075;-67
2021/07/02 02:16:37;;;;;;;8.55;4.70;;;20.60;63.30;;;;;;5035197;28;20446;-67
2021/07/02 02:19:02;;;;;;;9.10;5.50;;;20.60;63.30;;;;;;5035287;28;20022;-67
2021/07/02 02:21:28;;;;;;;7.97;4.90;;;20.60;63.30;;;;;;5035079;28;20466;-67
2021/07/02 02:23:53;;;;;;;9.65;5.13;;;20.60;63.30;;;;;;5035106;28;20025;-67
2021/07/02 02:26:19;;;;;;;10.95;5.10;;;20.60;63.30;;;;;;5034909;28;20509;-67
2021/07/02 02:28:44;;;;;;;8.05;4.85;;;20.60;63.30;;;;;;5034925;28;20025;-67
2021/07/02 02:31:10;;;;;;;8.45;5.05;;;20.60;63.30;;;;;;5035270;28;20087;-67
2021/07/02 02:33:36;;;;;;;9.70;5.75;;;20.60;63.30;;;;;;5034986;28;20017;-67
2021/07/02 02:36:03;;;;;;;10.55;5.30;;;20.50;63.30;;;;;;5034879;28;20477;-67
2021/07/02 02:38:28;;;;;;;10.18;5.10;;;20.50;63.30;;;;;;5034901;28;20025;-67
2021/07/02 02:40:54;;;;;;;8.82;5.00;;;20.60;63.30;;;;;;5034829;28;20401;-67
2021/07/02 02:43:19;;;;;;;8.98;4.88;;;20.60;63.30;;;;;;5034666;28;20038;-67
2021/07/02 02:45:45;;;;;;;9.15;5.47;;;20.60;63.30;;;;;;5034439;28;20046;-67
2021/07/02 02:48:10;;;;;;;7.95;4.82;;;20.60;63.30;;;;;;5034488;28;20026;-67
2021/07/02 02:50:36;;;;;;;9.60;5.10;;;20.50;63.30;;;;;;5034650;28;20028;-67
2021/07/02 02:53:01;;;;;;;8.15;4.75;;;20.50;63.30;;;;;;5034545;28;20026;-67
2021/07/02 02:55:27;;;;;;;10.02;5.57;;;20.50;63.30;;;;;;5034466;28;20029;-67
2021/07/02 02:57:52;;;;;;;9.25;5.40;;;20.60;63.30;;;;;;5016709;28;20021;-67
2021/07/02 03:00:18;;;;;;;10.55;5.13;;;20.50;63.30;;;;;;5034329;28;20106;-67
2021/07/02 03:02:44;;;;;;;9.43;4.90;;;20.50;63.30;;;;;;5034477;28;20051;-67
2021/07/02 03:05:09;;;;;;;8.32;4.95;;;20.60;63.30;;;;;;5034235;28;20032;-67
2021/07/02 03:07:35;;;;;;;8.23;4.90;;;20.60;63.30;;;;;;5034429;28;20112;-67
2021/07/02 03:10:00;;;;;;;9.05;4.68;;;20.60;63.30;;;;;;5034486;28;20026;-67
2021/07/02 03:12:26;;;;;;;10.20;5.07;;;20.50;63.30;;;;;;5034091;28;20428;-67
2021/07/02 03:14:53;;;;;;;9.43;4.57;;;20.60;63.30;;;;;;5034241;28;20060;-67
2021/07/02 03:17:20;;;;;;;9.65;5.25;;;20.50;63.30;;;;;;5034185;28;20030;-67
2021/07/02 03:19:46;;;;;;;8.95;5.25;;;20.50;63.30;;;;;;5033988;28;20025;-67
2021/07/02 03:22:11;;;;;;;8.38;5.25;;;20.50;63.30;;;;;;5034020;28;20057;-67
2021/07/02 03:24:37;;;;;;;8.68;5.30;;;20.50;63.30;;;;;;5033995;28;20030;-67
2021/07/02 03:27:03;;;;;;;10.20;5.20;;;20.50;63.30;;;;;;5033077;28;20492;-67
2021/07/02 03:29:29;;;;;;;9.05;4.88;;;20.60;63.30;;;;;;5033894;28;20034;-67
2021/07/02 03:31:54;;;;;;;8.18;4.72;;;20.50;63.30;;;;;;5034108;28;20067;-67
2021/07/02 03:34:20;;;;;;;8.75;5.07;;;20.50;63.30;;;;;;5033812;28;20025;-67
2021/07/02 03:36:46;;;;;;;10.15;5.47;;;20.50;63.30;;;;;;5033835;28;20091;-67
2021/07/02 03:39:12;;;;;;;9.25;5.53;;;20.50;63.30;;;;;;5033665;28;20021;-67
2021/07/02 03:41:37;;;;;;;9.18;5.40;;;20.50;63.30;;;;;;5033677;28;20033;-67
2021/07/02 03:44:03;;;;;;;7.88;4.75;;;20.50;63.30;;;;;;5033772;28;20030;-67
2021/07/02 03:46:29;;;;;;;7.97;4.80;;;20.50;63.30;;;;;;5033260;28;20481;-67
2021/07/02 03:48:54;;;;;;;8.70;4.90;;;20.50;63.40;;;;;;5033586;28;20026;-67
2021/07/02 03:51:20;;;;;;;10.10;5.63;;;20.50;63.30;;;;;;5033438;28;20033;-67
2021/07/02 03:53:46;;;;;;;9.63;5.50;;;20.50;63.30;;;;;;5033484;28;20029;-67
2021/07/02 03:56:11;;;;;;;7.15;4.65;;;20.50;63.30;;;;;;5033407;28;20018;-67
2021/07/02 03:58:38;;;;;;;9.07;5.07;;;20.50;63.30;;;;;;5033375;28;20382;-67
2021/07/02 04:01:04;;;;;;;7.55;4.72;;;20.50;63.30;;;;;;5033375;28;20025;-67
2021/07/02 04:03:31;;;;;;;8.75;5.20;;;20.50;63.40;;;;;;5033340;28;20038;-67
2021/07/02 04:05:57;;;;;;;7.47;5.00;;;20.50;63.40;;;;;;5016081;28;20034;-67
2021/07/02 04:08:23;;;;;;;9.23;4.45;;;20.50;63.40;;;;;;5033302;28;20516;-67
2021/07/02 04:10:48;;;;;;;10.23;5.18;;;20.50;63.40;;;;;;5033243;28;20105;-67
2021/07/02 04:13:15;;;;;;;10.10;5.55;;;20.50;63.40;;;;;;5033206;28;20466;-67
2021/07/02 04:15:41;;;;;;;10.75;5.78;;;20.50;63.40;;;;;;5033268;28;20516;-67
2021/07/02 04:18:07;;;;;;;9.70;5.35;;;20.50;63.40;;;;;;5033245;28;20040;-67
2021/07/02 04:20:33;;;;;;;9.98;6.03;;;20.50;63.40;;;;;;5033146;28;20064;-67
2021/07/02 04:22:59;;;;;;;9.55;5.10;;;20.50;63.40;;;;;;5033237;28;20428;-67
2021/07/02 04:25:24;;;;;;;7.97;4.95;;;20.50;63.30;;;;;;5032879;28;20061;-67
2021/07/02 04:27:50;;;;;;;8.98;5.10;;;20.50;63.40;;;;;;5033105;28;20109;-67
2021/07/02 04:30:16;;;;;;;7.90;4.90;;;20.50;63.40;;;;;;5033059;28;20080;-67
2021/07/02 04:32:42;;;;;;;9.27;5.05;;;20.50;63.40;;;;;;5033067;28;20147;-67
2021/07/02 04:35:09;;;;;;;9.48;5.20;;;20.50;63.30;;;;;;5033190;28;20052;-67
2021/07/02 04:37:38;;;;;;;8.93;4.95;;;20.50;63.40;;;;;;5033457;28;20039;-67
2021/07/02 04:40:05;;;;;;;7.88;4.75;;;20.50;63.30;;;;;;5037132;28;20367;-67
2021/07/02 04:42:30;;;;;;;9.85;5.38;;;20.50;63.30;;;;;;5037501;28;20024;-67
2021/07/02 04:44:56;;;;;;;8.45;4.93;;;20.50;63.30;;;;;;5036966;28;20116;-67
2021/07/02 04:47:22;;;;;;;10.82;5.20;;;20.50;63.30;;;;;;5036878;28;20051;-67
2021/07/02 04:49:47;;;;;;;8.18;4.72;;;20.50;63.40;;;;;;5037066;28;20096;-67
2021/07/02 04:52:13;;;;;;;10.18;5.03;;;20.50;63.30;;;;;;5036852;28;20029;-67
2021/07/02 04:54:38;;;;;;;9.88;5.53;;;20.50;63.30;;;;;;5036882;28;20026;-67
2021/07/02 04:57:04;;;;;;;8.35;4.82;;;20.50;63.30;;;;;;5036703;28;20079;-67
2021/07/02 04:59:34;;;;;;;9.30;5.18;;;20.50;63.30;;;;;;5036677;28;20025;-67
2021/07/02 05:02:00;;;;;;;8.25;5.15;;;20.50;63.30;;;;;;5036672;28;20057;-67
2021/07/02 05:04:25;;;;;;;8.93;5.00;;;20.50;63.30;;;;;;5036633;28;20123;-67
2021/07/02 05:06:51;;;;;;;8.82;4.82;;;20.50;63.30;;;;;;5036429;28;20052;-67
2021/07/02 05:09:16;;;;;;;8.75;4.90;;;20.50;63.30;;;;;;5036505;28;20048;-67
2021/07/02 05:11:42;;;;;;;9.02;4.82;;;20.50;63.30;;;;;;5036610;28;20072;-67
2021/07/02 05:14:08;;;;;;;8.32;4.88;;;20.50;63.30;;;;;;5036329;28;20025;-67
2021/07/02 05:16:33;;;;;;;10.32;5.45;;;20.50;63.30;;;;;;5036396;28;20053;-67
2021/07/02 05:18:59;;;;;;;10.15;5.38;;;20.50;63.30;;;;;;5036594;28;20053;-67
2021/07/02 05:21:25;;;;;;;9.43;5.28;;;20.50;63.30;;;;;;5036322;28;20030;-67
2021/07/02 05:23:51;;;;;;;8.73;5.18;;;20.50;63.30;;;;;;5036303;28;20018;-67
2021/07/02 05:26:16;;;;;;;9.82;5.10;;;20.50;63.30;;;;;;5036363;28;20492;-67
2021/07/02 05:28:42;;;;;;;8.60;4.68;;;20.50;63.30;;;;;;5036226;28;20032;-67
2021/07/02 05:31:08;;;;;;;8.07;4.68;;;20.50;63.30;;;;;;5036234;28;20033;-67
2021/07/02 05:33:34;;;;;;;8.70;4.93;;;20.50;63.30;;;;;;5036674;28;20466;-67
2021/07/02 05:35:59;;;;;;;8.32;5.00;;;20.50;63.30;;;;;;5036122;28;20033;-67
2021/07/02 05:38:25;;;;;;;7.45;4.65;;;20.50;63.30;;;;;;5036071;28;20492;-67
2021/07/02 05:40:54;;;;;;;8.18;4.82;;;20.50;63.30;;;;;;5036122;28;20519;-67
2021/07/02 05:43:24;;;;;;;8.90;4.93;;;20.50;63.40;;;;;;5036279;28;20024;-67
2021/07/02 05:45:50;;;;;;;10.70;5.38;;;20.50;63.40;;;;;;5035944;28;20057;-67
2021/07/02 05:48:20;;;;;;;8.40;4.63;;;20.50;63.30;;;;;;5036048;28;20033;-67
2021/07/02 05:50:47;;;;;;;10.13;4.85;;;20.50;63.30;;;;;;5035162;28;20026;-67
2021/07/02 05:53:14;;;;;;;8.73;5.20;;;20.50;63.30;;;;;;5036135;28;20036;-67
2021/07/02 05:55:39;;;;;;;9.15;5.20;;;20.50;63.30;;;;;;5035962;28;20182;-67
2021/07/02 05:58:05;;;;;;;8.32;5.05;;;20.50;63.30;;;;;;5035662;28;20017;-67
2021/07/02 06:00:30;;;;;;;8.82;4.90;;;20.50;63.30;;;;;;5035660;28;20029;-67
2021/07/02 06:02:56;;;;;;;8.55;4.88;;;20.50;63.20;;;;;;5035593;28;20028;-67
2021/07/02 06:05:22;;;;;;;9.68;5.47;;;20.50;63.20;;;;;;5035399;28;20228;-67
2021/07/02 06:07:50;;;;;;;7.85;4.47;;;20.50;63.20;;;;;;5035765;28;20040;-67
2021/07/02 06:10:18;;;;;;;8.82;4.88;;;20.50;63.20;;;;;;5035641;28;20049;-67
2021/07/02 06:12:45;;;;;;;7.80;4.78;;;20.50;63.10;;;;;;5035242;28;20026;-67
2021/07/02 06:15:12;;;;;;;8.52;4.82;;;20.60;63.10;;;;;;5035352;28;20025;-68
2021/07/02 06:17:38;;;;;;;11.50;5.78;;;20.60;63.00;;;;;;5035353;28;20116;-67
2021/07/02 06:20:04;;;;;;;8.35;4.40;;;20.60;63.00;;;;;;5017642;28;20469;-67
2021/07/02 06:22:30;;;;;;;8.57;4.68;;;20.60;63.00;;;;;;5035243;28;20032;-67
2021/07/02 06:24:56;;;;;;;9.23;4.95;;;20.60;62.90;;;;;;5035148;28;20026;-67
2021/07/02 06:27:21;;;;;;;8.88;5.05;;;20.60;62.90;;;;;;5035017;28;20069;-68
2021/07/02 06:29:47;;;;;;;8.60;5.05;;;20.70;62.90;;;;;;5035218;28;20105;-67
2021/07/02 06:32:12;;;;;;;8.52;5.00;;;20.70;62.80;;;;;;5017380;28;20037;-67
2021/07/02 06:34:38;;;;;;;8.68;5.13;;;20.70;62.80;;;;;;5032201;28;20025;-67
2021/07/02 06:37:04;;;;;;;8.00;4.93;;;20.60;63.00;;;;;;5015923;28;20076;-67
2021/07/02 06:39:29;;;;;;;9.60;4.95;;;20.60;63.00;;;;;;5029101;28;20041;-67
2021/07/02 06:41:55;;;;;;;11.60;5.40;;;20.60;62.80;;;;;;5034145;28;20496;-68
2021/07/02 06:44:20;;;;;;;9.50;5.00;;;20.70;62.70;;;;;;5023339;28;20065;-67
2021/07/02 06:46:46;;;;;;;10.05;4.78;;;20.70;62.60;;;;;;5014403;28;20050;-69
2021/07/02 06:49:12;;;;;;;8.43;5.13;;;20.70;62.60;;;;;;5023980;28;20033;-69
2021/07/02 06:51:38;;;;;;;9.55;5.32;;;20.80;62.70;;;;;;5035847;28;20029;-68
2021/07/02 06:54:04;;;;;;;9.90;5.13;;;20.80;62.40;;;;;;5013096;28;20030;-68
2021/07/02 06:56:31;;;;;;;9.40;5.03;;;20.80;62.50;;;;;;5036578;28;20041;-68
2021/07/02 06:58:57;;;;;;;8.70;5.05;;;20.90;62.40;;;;;;5046646;28;20021;-68
2021/07/02 07:01:26;;;;;;;12.82;4.82;;;20.90;62.50;;;;;;5025634;28;20037;-67
2021/07/02 07:03:52;;;;;;;10.60;4.80;;;20.90;62.40;;;;;;5025932;28;20029;-68
2021/07/02 07:06:18;;;;;;;10.65;5.15;;;20.90;62.30;;;;;;5043872;28;20121;-68
2021/07/02 07:08:44;;;;;;;8.25;4.97;;;20.90;62.20;;;;;;5030650;28;20088;-68
2021/07/02 07:11:10;;;;;;;12.57;5.25;;;21.00;62.10;;;;;;5015998;28;20034;-67
2021/07/02 07:13:40;;;;;;;9.98;4.97;;;21.00;62.20;;;;;;5026320;28;20029;-68
2021/07/02 07:16:05;;;;;;;11.70;5.63;;;21.00;62.20;;;;;;5025372;28;20413;-67
2021/07/02 07:18:31;;;;;;;8.35;4.70;;;21.00;62.10;;;;;;5022967;28;20029;-67
2021/07/02 07:20:57;;;;;;;8.10;4.78;;;21.00;62.10;;;;;;5021942;28;20091;-68
2021/07/02 07:23:22;;;;;;;14.10;4.90;;;21.00;62.10;;;;;;5023916;28;20025;-68
2021/07/02 07:25:49;;;;;;;9.18;4.95;;;21.10;62.00;;;;;;5022315;28;20034;-68
2021/07/02 07:28:15;;;;;;;8.20;4.75;;;21.10;62.00;;;;;;5022970;28;20363;-68
2021/07/02 07:30:40;;;;;;;7.43;4.45;;;21.10;62.10;;;;;;5023363;28;20026;-68
2021/07/02 07:33:16;;;;;;;10.52;5.30;;;21.10;62.10;;;;;;5066159;28;20391;-68
2021/07/02 07:35:43;;;;;;;8.43;4.85;;;21.00;62.10;;;;;;5057564;28;20499;-67
2021/07/02 07:38:09;;;;;;;7.40;4.30;;;21.10;62.20;;;;;;5058951;28;20025;-67
2021/07/02 07:40:35;;;;;;;38.38;5.35;;;21.00;62.20;;;;;;5059257;28;20097;-68
2021/07/02 07:43:01;;;;;;;11.10;5.15;;;21.00;62.20;;;;;;5057335;28;20051;-68
2021/07/02 07:45:27;;;;;;;8.95;4.55;;;21.00;62.10;;;;;;5065776;28;20024;-68
2021/07/02 07:47:53;;;;;;;9.73;4.22;;;21.00;62.10;;;;;;5067677;28;20078;-65
2021/07/02 07:50:22;;;;;;;8.32;4.18;;;21.00;62.20;;;;;;5068708;28;20020;-68
2021/07/02 07:53:00;;;;;;;9.00;4.32;;;21.10;62.30;;;;;;5067997;28;20400;-68
2021/07/02 07:55:30;;;;;;;9.30;4.18;;;21.10;62.20;;;;;;5068619;28;20393;-68
2021/07/02 07:57:57;;;;;;;10.02;4.70;;;21.10;62.10;;;;;;5068532;28;20036;-68
2021/07/02 08:00:24;;;;;;;11.02;4.78;;;21.10;62.10;;;;;;5068623;28;20028;-68
2021/07/02 08:02:50;;;;;;;9.23;4.50;;;21.10;62.00;;;;;;5068315;28;20111;-68
2021/07/02 08:05:16;;;;;;;10.25;4.53;;;21.10;62.00;;;;;;5067953;28;20115;-68
2021/07/02 08:07:44;;;;;;;7.25;4.28;;;21.10;62.00;;;;;;5066069;28;20044;-68
2021/07/02 08:10:13;;;;;;;12.00;4.22;;;21.10;62.10;;;;;;5068339;28;20016;-71
2021/07/02 08:12:39;;;;;;;8.02;4.30;;;21.10;62.00;;;;;;5068242;28;20040;-69
2021/07/02 08:15:07;;;;;;;9.52;4.68;;;21.20;61.90;;;;;;5067926;28;20029;-68
2021/07/02 08:17:34;;;;;;;11.57;4.88;;;21.20;61.80;;;;;;5068287;28;20071;-68
2021/07/02 08:19:59;;;;;;;14.27;4.78;;;21.20;61.80;;;;;;5067888;28;20029;-67
2021/07/02 08:22:26;;;;;;;14.68;5.00;;;21.20;61.80;;;;;;5066794;28;20052;-68
2021/07/02 08:24:52;;;;;;;10.93;4.65;;;21.20;61.70;;;;;;5067421;28;20028;-68
2021/07/02 08:27:19;;;;;;;11.38;4.68;;;21.20;61.70;;;;;;5068475;28;20033;-68
2021/07/02 08:29:44;;;;;;;10.43;4.30;;;21.30;61.70;;;;;;5068188;28;20415;-68
2021/07/02 08:32:10;;;;;;;10.95;4.72;;;21.30;61.70;;;;;;5059429;28;20045;-68
2021/07/02 08:34:35;;;;;;;8.95;4.90;;;21.30;61.60;;;;;;5028249;28;20084;-68
2021/07/02 08:37:01;;;;;;;10.93;5.45;;;21.30;61.60;;;;;;5033659;28;20025;-67
2021/07/02 08:39:27;;;;;;;10.63;4.70;;;21.30;61.60;;;;;;5047735;28;20385;-67
2021/07/02 08:41:53;;;;;;;11.18;5.43;;;21.30;61.70;;;;;;5047932;28;20013;-68
2021/07/02 08:44:18;;;;;;;11.57;4.97;;;21.30;61.80;;;;;;5036067;28;20038;-67
2021/07/02 08:46:45;;;;;;;11.13;4.68;;;21.30;61.90;;;;;;5034411;28;20022;-68
2021/07/02 08:49:11;;;;;;;12.07;4.90;;;21.30;61.80;;;;;;5034966;28;20044;-67
2021/07/02 08:51:36;;;;;;;8.75;4.28;;;21.40;61.70;;;;;;5034587;28;20484;-67
2021/07/02 08:54:03;;;;;;;9.57;4.38;;;21.40;61.70;;;;;;5034219;28;20033;-67
2021/07/02 08:56:29;;;;;;;11.95;4.47;;;21.40;61.60;;;;;;5034404;28;20033;-67
2021/07/02 08:58:54;;;;;;;8.70;4.45;;;21.40;61.70;;;;;;5033907;28;20094;-67
2021/07/02 09:01:41;;;;;;;8.05;4.10;;;21.40;61.60;;;;;;5034382;28;20025;-67
2021/07/02 09:04:26;;;;;;;9.70;4.53;;;21.40;61.50;;;;;;5034866;28;20053;-67
2021/07/02 09:07:04;;;;;;;12.82;4.05;;;21.40;61.60;;;;;;5034075;28;20025;-66
2021/07/02 09:10:06;;;;;;;10.60;4.60;;;21.50;61.70;;;;;;5034051;28;20473;-67
2021/07/02 09:12:35;;;;;;;9.70;4.90;;;21.50;61.70;;;;;;5033633;28;20428;-67
2021/07/02 09:15:01;;;;;;;14.23;5.38;;;21.50;61.70;;;;;;5033872;28;20462;-67
2021/07/02 09:17:27;;;;;;;9.23;4.05;;;21.50;61.60;;;;;;5034014;28;20049;-67
2021/07/02 09:20:03;;;;;;;10.82;4.00;;;21.50;61.50;;;;;;5033711;28;20079;-67
2021/07/02 09:22:41;;;;;;;9.50;4.30;;;21.50;61.60;;;;;;5033869;28;20061;-67
2021/07/02 09:25:47;;;;;;;11.02;4.60;;;21.50;61.70;;;;;;5033826;28;20350;-67
2021/07/02 09:28:20;;;;;;;9.13;4.18;;;21.50;61.50;;;;;;5048481;28;20021;-67
2021/07/02 09:30:48;;;;;;;9.25;4.53;;;21.50;61.50;;;;;;5054159;28;20083;-67
2021/07/02 09:33:16;;;;;;;9.35;4.53;;;21.50;61.50;;;;;;5028344;28;20069;-67
2021/07/02 09:35:53;;;;;;;8.88;4.95;;;21.50;61.60;;;;;;5014087;28;20026;-67
2021/07/02 09:38:37;;;;;;;8.38;3.97;;;21.50;61.70;;;;;;5014038;28;20537;-67
2021/07/02 09:41:05;;;;;;;11.85;4.50;;;21.50;61.60;;;;;;5013474;28;20064;-67
2021/07/02 09:43:30;;;;;;;8.82;4.38;;;21.60;61.60;;;;;;5013715;28;20026;-67
2021/07/02 09:46:00;;;;;;;7.88;4.35;;;21.60;61.50;;;;;;5013757;28;20395;-67
2021/07/02 09:48:27;;;;;;;13.43;4.90;;;21.50;61.60;;;;;;5013672;28;20103;-67
2021/07/02 09:50:57;;;;;;;12.60;4.90;;;21.50;61.50;;;;;;5013337;28;20029;-68
2021/07/02 09:53:30;;;;;;;13.23;4.20;;;21.60;61.60;;;;;;5020710;28;20087;-68
2021/07/02 09:55:58;;;;;;;8.93;4.10;;;21.60;61.40;;;;;;5032530;28;20029;-68
2021/07/02 09:58:27;;;;;;;8.25;3.97;;;21.70;61.30;;;;;;5033601;28;20026;-68
2021/07/02 10:01:00;;;;;;;7.72;3.92;;;21.60;61.30;;;;;;5032367;28;20075;-68
2021/07/02 10:03:31;;;;;;;12.20;4.15;;;21.60;61.40;;;;;;5027434;28;20124;-68
2021/07/02 10:06:30;;;;;;;7.75;4.05;;;21.60;61.40;;;;;;5018498;28;20037;-68
2021/07/02 10:08:56;;;;;;;9.10;3.90;;;21.70;61.30;;;;;;5032263;28;20044;-68
2021/07/02 10:11:23;;;;;;;8.75;4.35;;;21.70;61.20;;;;;;5019257;28;20042;-68
2021/07/02 10:13:49;;;;;;;7.28;4.43;;;21.80;61.30;;;;;;5013612;28;20253;-68
2021/07/02 10:16:15;;;;;;;9.93;4.45;;;21.70;61.10;;;;;;5013521;28;20101;-68
2021/07/02 10:18:56;;;;;;;7.95;3.80;;;21.70;61.20;;;;;;5013400;28;20029;-68
2021/07/02 10:21:25;;;;;;;7.97;4.38;;;21.70;61.40;;;;;;5014522;28;20026;-67
2021/07/02 10:23:56;;;;;;;7.40;4.18;;;21.80;61.20;;;;;;5013359;28;20036;-67
2021/07/02 10:26:25;;;;;;;8.93;4.32;;;21.80;61.20;;;;;;5033224;28;20021;-67
2021/07/02 10:28:51;;;;;;;8.98;4.30;;;21.80;61.10;;;;;;5028305;28;20129;-67
2021/07/02 10:31:18;;;;;;;8.10;3.55;;;21.90;61.00;;;;;;5031591;28;20049;-67
2021/07/02 10:33:49;;;;;;;9.00;4.32;;;21.90;60.90;;;;;;5015654;28;20030;-67
2021/07/02 10:36:17;;;;;;;6.40;3.40;;;21.90;60.90;;;;;;5013208;28;20125;-67
2021/07/02 10:38:48;;;;;;;9.85;3.85;;;22.00;60.90;;;;;;5012897;28;20477;-67
2021/07/02 10:41:26;;;;;;;8.25;3.92;;;22.00;60.80;;;;;;5013204;28;20433;-67
2021/07/02 10:44:11;;;;;;;8.05;3.40;;;22.00;60.70;;;;;;5013285;28;20032;-67
2021/07/02 10:46:37;;;;;;;5.50;3.30;;;22.00;60.90;;;;;;5027746;28;20040;-68
2021/07/02 10:49:07;;;;;;;7.18;3.60;;;22.00;60.90;;;;;;5012628;28;20054;-67
2021/07/02 10:51:35;;;;;;;8.57;4.22;;;21.90;61.00;;;;;;5012997;28;20065;-69
2021/07/02 10:54:09;;;;;;;8.63;3.15;;;21.90;61.00;;;;;;5030948;28;20033;-69
2021/07/02 10:56:37;;;;;;;7.95;3.85;;;21.90;61.10;;;;;;5032207;28;20024;-69
2021/07/02 10:59:03;;;;;;;7.63;3.72;;;21.90;61.00;;;;;;5032480;28;20040;-69
2021/07/02 11:01:31;;;;;;;7.68;4.03;;;21.90;60.70;;;;;;5032859;28;20034;-69
2021/07/02 11:04:34;;;;;;;6.70;3.63;;;22.00;60.70;;;;;;5031695;28;20459;-69
2021/07/02 11:07:27;;;;;;;6.70;4.03;;;22.00;60.50;;;;;;5033281;28;20041;-69
2021/07/02 11:09:55;;;;;;;7.07;3.90;;;22.00;60.50;;;;;;5032804;28;20036;-69
2021/07/02 11:12:26;;;;;;;7.95;4.03;;;22.00;60.50;;;;;;5032425;28;20033;-69
2021/07/02 11:14:52;;;;;;;6.97;3.42;;;22.00;60.50;;;;;;5033430;28;20017;-69
2021/07/02 11:17:24;;;;;;;6.75;3.75;;;22.00;60.60;;;;;;5033150;28;20044;-69
2021/07/02 11:20:10;;;;;;;7.60;3.53;;;22.00;60.60;;;;;;5033348;28;20025;-69
2021/07/02 11:22:46;;;;;;;8.82;4.00;;;22.00;60.70;;;;;;5028193;28;20052;-69
2021/07/02 11:25:23;;;;;;;8.02;4.07;;;22.00;60.60;;;;;;5033622;28;20108;-69
2021/07/02 11:27:56;;;;;;;9.10;3.10;;;22.00;60.70;;;;;;5032303;28;20028;-69
2021/07/02 11:32:50;;;;;;;8.63;4.55;;;22.00;60.70;;;;;;5022797;28;20425;-69
2021/07/02 11:35:28;;;;;;;6.03;3.25;;;22.00;60.70;;;;;;5019708;28;20030;-69
2021/07/02 11:38:02;;;;;;;6.60;3.33;;;22.00;60.60;;;;;;5014850;28;20050;-69
2021/07/02 11:40:53;;;;;;;11.15;4.45;;;22.00;60.50;;;;;;5013780;28;20032;-69
2021/07/02 11:43:33;;;;;;;8.52;3.65;;;22.00;60.50;;;;;;5012825;28;20049;-69
2021/07/02 11:46:07;;;;;;;6.00;3.30;;;22.10;60.40;;;;;;5013091;28;20050;-68
2021/07/02 11:48:34;;;;;;;7.47;4.03;;;22.20;60.20;;;;;;5013545;28;20026;-69
2021/07/02 11:51:13;;;;;;;7.43;3.97;;;22.20;60.20;;;;;;5012790;28;20026;-69
2021/07/02 11:53:45;;;;;;;6.50;3.38;;;22.20;60.20;;;;;;5020283;28;20033;-69
2021/07/02 11:56:12;;;;;;;7.78;3.30;;;22.30;60.10;;;;;;5031293;28;20018;-69
2021/07/02 11:59:29;;;;;;;;;;;;;;;;;;;;;
2021/07/02 12:01:57;;;;;;;8.43;3.47;;;22.40;59.90;;;;;;5026007;28;20392;-69
2021/07/02 12:04:25;;;;;;;7.50;3.78;;;22.50;59.80;;;;;;5032711;28;20072;-69
2021/07/02 12:06:52;;;;;;;5.53;2.85;;;22.40;59.60;;;;;;5031757;28;20552;-69
2021/07/02 12:09:27;;;;;;;7.70;3.40;;;22.50;59.50;;;;;;5032179;28;20052;-69
2021/07/02 12:11:57;;;;;;;6.95;3.67;;;22.50;59.50;;;;;;5033562;28;20017;-69
2021/07/02 12:14:26;;;;;;;8.90;3.92;;;22.50;59.50;;;;;;5041313;28;20412;-69
2021/07/02 12:16:54;;;;;;;8.30;3.80;;;22.50;59.60;;;;;;5034475;28;20025;-68
2021/07/02 12:19:22;;;;;;;8.40;4.35;;;22.50;59.60;;;;;;5034591;28;20037;-68
2021/07/02 12:22:06;;;;;;;8.48;3.60;;;22.60;59.60;;;;;;5035769;28;20473;-68
2021/07/02 12:24:35;;;;;;;6.90;3.70;;;22.60;59.40;;;;;;5053052;28;20033;-68
2021/07/02 12:27:03;;;;;;;7.32;3.83;;;22.70;59.20;;;;;;5055426;28;20385;-68
2021/07/02 12:29:31;;;;;;;7.35;3.95;;;22.70;59.30;;;;;;5055619;28;20025;-69
2021/07/02 12:32:02;;;;;;;9.13;3.50;;;22.70;59.30;;;;;;5050947;28;20113;-69
2021/07/02 12:34:36;;;;;;;6.20;2.92;;;22.70;59.40;;;;;;5015914;28;20026;-69
2021/07/02 12:37:03;;;;;;;5.90;3.05;;;22.60;59.40;;;;;;5015892;28;20183;-69
2021/07/02 12:39:40;;;;;;;7.55;3.40;;;22.60;59.40;;;;;;5015452;28;20136;-69
2021/07/02 12:42:12;;;;;;;5.53;3.00;;;22.70;59.40;;;;;;5015300;28;20033;-70
2021/07/02 12:44:39;;;;;;;5.93;3.40;;;22.70;59.40;;;;;;5015339;28;20053;-69
2021/07/02 12:47:07;;;;;;;8.13;3.58;;;22.80;59.30;;;;;;5015056;28;20018;-69
2021/07/02 12:49:46;;;;;;;6.75;3.72;;;22.90;59.00;;;;;;5014976;28;20052;-71
2021/07/02 12:54:52;;;;;;;7.38;3.25;;;23.00;58.90;;;;;;5030530;28;20440;-69
2021/07/02 12:57:22;;;;;;;6.03;3.20;;;23.00;58.70;;;;;;5034877;28;20021;-70